Main page
METAR-TAF:

METAR-TAF

Airports :

Kota Kinabalu International Airport

Kota Kinabalu, Malaysia

latitude: 05-56N, longitude: 116-03E, elevation: 3 m

Current weather observation

The report was made 28 minutes ago, at 19:00 UTC
Wind 3 kt from variable directions
Temperature 25°C
Humidity 89%
Pressure 1008 hPa
Visibility 10 km or more
Few clouds at a height of 1500 ft

METAR: WBKK 031900Z VRB03KT 9999 FEW015 25/23 Q1008 NOSIG

Time: 03:28 (19:28 UTC)

Forecast

The report was made 2 hours and 28 minutes ago, at 17:00 UTC
Forecast valid from 03 at 18 UTC to 04 at 18 UTC
Wind 5 kt from the East/Southeast
Visibility 10 km or more
Few clouds at a height of 1400 ft
Becoming
from 04 at 00 UTC to 04 at 02 UTC
Wind 6 kt from the North/Northwest

TAF: WBKK 031700Z 0318/0418 11005KT 9999 FEW014 BECMG 0400/0402 33006KT

Weather observations and forecasts of more than 4000 airports (METAR and TAF reports).

The available stations are represented by yellow and red dots on the map.

Hover mouse over dot to see the name of the station.

Then click to see weather observations and forecasts.

To change the map : click on the green buttons with a black cross to zoom in, on the green button with a dash to zoom out, or on the green arrows for adjacent maps.


METAR-TAF: